Time;durP1;ratioP1;P1;durP2;ratioP2;P2;SDS_P1;SDS_P2;PMS_P1;PMS_P2;Temp;Humidity;BMP_temperature;BMP_pressure;BME280_temperature;BME280_humidity;BME280_pressure;Samples;Min_cycle;Max_cycle;Signal;HPM_P1;HPM_P2
2023/01/28 00:02:18;;;;;;;35.10;16.27;;;;;;;-1.05;100.00;100059.94;5075731;28;20020;-77
2023/01/28 00:04:43;;;;;;;38.13;16.47;;;;;;;-1.06;100.00;100052.16;5075651;28;20498;-77
2023/01/28 00:07:09;;;;;;;33.07;15.40;;;;;;;-1.08;100.00;100061.91;5075727;28;20386;-77
2023/01/28 00:09:34;;;;;;;38.87;16.70;;;;;;;-1.12;100.00;100056.88;5057746;28;20487;-78
2023/01/28 00:12:00;;;;;;;34.90;15.47;;;;;;;-0.96;100.00;100051.47;5075596;28;20024;-78
2023/01/28 00:14:26;;;;;;;36.23;16.70;;;;;;;-1.06;100.00;100036.44;5075718;28;20086;-77
2023/01/28 00:16:52;;;;;;;37.17;16.13;;;;;;;-1.11;100.00;100048.06;5057610;28;20111;-78
2023/01/28 00:19:17;;;;;;;34.17;14.37;;;;;;;-1.05;100.00;100046.00;5075473;28;20348;-78
2023/01/28 00:21:43;;;;;;;36.43;16.33;;;;;;;-1.02;100.00;100048.38;5075720;28;20027;-77
2023/01/28 00:24:09;;;;;;;35.63;15.80;;;;;;;-0.94;100.00;100054.00;5075685;28;20081;-78
2023/01/28 00:26:35;;;;;;;35.70;15.73;;;;;;;-0.97;100.00;100048.94;5075514;28;20052;-78
2023/01/28 00:29:01;;;;;;;39.20;16.33;;;;;;;-0.94;100.00;100040.88;5075259;28;20823;-78
2023/01/28 00:31:26;;;;;;;41.00;16.67;;;;;;;-0.97;100.00;100041.91;5075432;28;20027;-78
2023/01/28 00:33:53;;;;;;;39.97;16.57;;;;;;;-1.01;100.00;100050.06;5075228;28;20040;-77
2023/01/28 00:36:21;;;;;;;37.50;16.07;;;;;;;-1.02;100.00;100051.00;5057560;28;20039;-77
2023/01/28 00:38:58;;;;;;;35.83;16.30;;;;;;;-0.88;100.00;100059.66;5075221;28;20754;-77
2023/01/28 00:41:25;;;;;;;38.07;16.70;;;;;;;-0.97;100.00;100048.94;5075273;28;20728;-78
2023/01/28 00:43:53;;;;;;;38.73;16.43;;;;;;;-1.00;100.00;100059.63;5075285;28;20266;-77
2023/01/28 00:46:20;;;;;;;36.73;16.47;;;;;;;-1.06;100.00;100054.78;5075065;28;20314;-78
2023/01/28 00:48:46;;;;;;;37.83;16.90;;;;;;;-1.06;100.00;100053.00;5075045;28;20269;-78
2023/01/28 00:51:14;;;;;;;36.57;14.63;;;;;;;-1.02;100.00;100053.63;5056913;28;20632;-77
2023/01/28 00:53:40;;;;;;;36.97;15.40;;;;;;;-1.07;100.00;100055.72;5074995;28;20744;-77
2023/01/28 00:56:07;;;;;;;39.07;16.63;;;;;;;-1.10;100.00;100049.75;5074750;28;20318;-77
2023/01/28 00:58:34;;;;;;;38.70;16.43;;;;;;;-1.06;100.00;100049.53;5074715;28;20039;-78
2023/01/28 01:01:11;;;;;;;35.30;15.53;;;;;;;-1.13;100.00;100054.34;5074708;28;20257;-78
2023/01/28 01:03:37;;;;;;;37.07;16.40;;;;;;;-0.93;100.00;100053.06;5094888;28;20356;-77
2023/01/28 01:06:03;;;;;;;35.00;16.73;;;;;;;-1.05;100.00;100049.44;5094911;28;20271;-77
2023/01/28 01:08:34;;;;;;;33.97;15.73;;;;;;;-1.06;100.00;100045.16;5076354;28;20070;-77
2023/01/28 01:11:03;;;;;;;41.87;17.00;;;;;;;-1.06;100.00;100052.16;5076796;28;20288;-77
2023/01/28 01:13:31;;;;;;;36.25;16.08;;;;;;;-1.08;100.00;100059.28;5094903;28;20265;-78
2023/01/28 01:16:15;;;;;;;36.33;15.67;;;;;;;-1.01;100.00;100053.53;5094829;28;20027;-78
2023/01/28 01:18:42;;;;;;;42.63;17.13;;;;;;;-0.99;100.00;100054.28;5095073;28;20336;-77
2023/01/28 01:21:16;;;;;;;36.57;16.13;;;;;;;-1.07;100.00;100059.19;5076773;28;20394;-78
2023/01/28 01:23:42;;;;;;;35.97;15.60;;;;;;;-0.94;100.00;100062.69;5094613;28;20264;-77
2023/01/28 01:26:07;;;;;;;38.90;16.42;;;;;;;-0.97;100.00;100052.41;5076472;28;20642;-77
2023/01/28 01:28:33;;;;;;;38.27;15.40;;;;;;;-0.97;100.00;100067.28;5094683;28;20027;-77
2023/01/28 01:31:05;;;;;;;40.03;16.57;;;;;;;-0.92;100.00;100075.69;5094199;28;20024;-78
2023/01/28 01:33:31;;;;;;;36.27;16.03;;;;;;;-1.02;100.00;100072.84;5094636;28;20024;-78
2023/01/28 01:35:57;;;;;;;38.80;16.53;;;;;;;-1.07;100.00;100076.72;5094484;28;20256;-78
2023/01/28 01:38:26;;;;;;;37.37;16.93;;;;;;;-1.09;100.00;100074.19;5094294;28;20299;-78
2023/01/28 01:40:56;;;;;;;37.03;16.40;;;;;;;-0.95;100.00;100062.81;5094275;28;20731;-78
2023/01/28 01:43:22;;;;;;;38.80;15.47;;;;;;;-0.94;100.00;100075.81;5094568;28;20252;-77
2023/01/28 01:45:59;;;;;;;34.87;15.87;;;;;;;-0.94;100.00;100075.81;5076119;28;20777;-77
2023/01/28 01:48:32;;;;;;;38.58;17.23;;;;;;;-1.08;100.00;100075.88;5094344;28;20746;-78
2023/01/28 01:51:11;;;;;;;38.80;16.48;;;;;;;-1.08;100.00;100075.88;5094008;28;20491;-78
2023/01/28 01:53:42;;;;;;;35.97;16.53;;;;;;;-0.97;100.00;100060.28;5094259;28;20057;-78
2023/01/28 01:56:11;;;;;;;37.87;15.67;;;;;;;-1.03;100.00;100054.56;5075861;28;20750;-78
2023/01/28 01:58:41;;;;;;;38.07;16.13;;;;;;;-0.93;100.00;100067.00;5075905;28;20755;-78
2023/01/28 02:01:07;;;;;;;37.43;16.43;;;;;;;-0.92;100.00;100059.94;5094264;28;20256;-78
2023/01/28 02:04:03;;;;;;;38.50;16.03;;;;;;;-0.98;100.00;100065.63;5072538;28;20788;-77
2023/01/28 02:06:31;;;;;;;39.40;16.30;;;;;;;-0.93;100.00;100074.88;5073857;28;20020;-78
2023/01/28 02:08:57;;;;;;;37.57;15.63;;;;;;;-0.94;100.00;100059.22;5073581;28;20348;-77
2023/01/28 02:11:27;;;;;;;38.33;15.47;;;;;;;-0.99;100.00;100066.56;5073615;28;20364;-78
2023/01/28 02:13:57;;;;;;;36.73;16.37;;;;;;;-0.96;100.00;100074.22;5073208;28;20028;-78
2023/01/28 02:16:24;;;;;;;39.63;16.27;;;;;;;-1.03;100.00;100075.56;5073760;28;20257;-78
2023/01/28 02:18:50;;;;;;;37.53;15.73;;;;;;;-0.95;100.00;100078.53;5073376;28;20258;-78
2023/01/28 02:21:43;;;;;;;36.80;16.07;;;;;;;-0.99;100.00;100074.41;5073361;28;20319;-78
2023/01/28 02:24:52;;;;;;;36.00;15.67;;;;;;;-0.99;100.00;100069.19;5071967;28;20115;-78
2023/01/28 02:27:56;;;;;;;36.85;14.93;;;;;;;-0.95;100.00;100062.81;5073335;28;20257;-78
2023/01/28 02:30:28;;;;;;;38.25;16.45;;;;;;;-1.03;100.00;100070.31;5001292;28;20038;-78
2023/01/28 02:33:07;;;;;;;35.63;15.73;;;;;;;-1.06;100.00;100058.25;5073064;28;20056;-77
2023/01/28 02:35:53;;;;;;;37.13;16.23;;;;;;;-1.03;100.00;100065.06;5073213;28;20269;-78
2023/01/28 02:38:26;;;;;;;38.40;16.30;;;;;;;-1.11;100.00;100063.78;5073159;28;20747;-78
2023/01/28 02:41:05;;;;;;;37.92;16.50;;;;;;;-1.10;100.00;100067.25;5072887;28;20310;-78
2023/01/28 02:43:38;;;;;;;40.97;16.57;;;;;;;-0.94;100.00;100077.59;5072967;28;20391;-78
2023/01/28 02:49:34;;;;;;;40.33;17.07;;;;;;;-1.19;100.00;100065.25;5069223;28;20119;-78
2023/01/28 02:56:04;;;;;;;38.58;16.33;;;;;;;-1.04;100.00;100072.13;4991582;28;20141;-78
2023/01/28 02:58:41;;;;;;;40.70;16.20;;;;;;;-1.08;100.00;100073.25;5031403;28;20046;-78
2023/01/28 03:01:35;;;;;;;36.75;15.75;;;;;;;-1.12;100.00;100074.38;5072964;28;20391;-78
2023/01/28 03:04:07;;;;;;;40.65;16.85;;;;;;;-1.19;100.00;100060.84;5083916;28;20055;-78
2023/01/28 03:06:39;;;;;;;40.30;16.52;;;;;;;-1.11;100.00;100062.94;5093222;28;20490;-78
2023/01/28 03:09:27;;;;;;;40.03;15.82;;;;;;;-1.08;100.00;100062.75;5092739;28;20028;-78
2023/01/28 03:38:21;;;;;;;38.03;16.50;;;;;;;-1.18;100.00;100091.38;5092814;28;20031;-78
2023/01/28 03:41:03;;;;;;;36.97;15.53;;;;;;;-1.17;100.00;100084.34;5092544;28;20252;-78
2023/01/28 03:43:30;;;;;;;37.70;16.37;;;;;;;-1.14;100.00;100076.25;5092568;28;20403;-78
2023/01/28 03:45:57;;;;;;;37.25;16.05;;;;;;;-1.09;100.00;100095.16;5092470;28;20340;-78
2023/01/28 03:48:26;;;;;;;37.67;16.48;;;;;;;-1.11;100.00;100086.56;5092342;28;20051;-78
2023/01/28 03:50:54;;;;;;;39.55;17.13;;;;;;;-1.11;100.00;100090.03;5092211;28;20023;-78
2023/01/28 03:53:20;;;;;;;40.47;17.67;;;;;;;-1.15;100.00;100079.81;5092539;28;20050;-78
2023/01/28 03:55:49;;;;;;;37.53;16.27;;;;;;;-1.03;100.00;100083.44;5092339;28;20268;-78
2023/01/28 03:58:16;;;;;;;38.97;17.30;;;;;;;-1.08;100.00;100088.16;5092562;28;20253;-78
2023/01/28 04:00:42;;;;;;;39.50;17.50;;;;;;;-1.05;100.00;100087.97;5076690;28;20344;-78
2023/01/28 04:03:19;;;;;;;38.63;17.57;;;;;;;-1.10;100.00;100077.75;5072190;28;20288;-78
2023/01/28 04:06:03;;;;;;;41.75;16.73;;;;;;;-1.06;100.00;100084.50;5072152;28;20261;-78
2023/01/28 04:08:28;;;;;;;;;;;;;;;-1.09;100.00;100084.69;5072908;28;20028;-78
2023/01/28 04:10:54;;;;;;;38.73;15.37;;;;;;;-1.07;100.00;100082.81;5072193;28;19916;-78
2023/01/28 04:13:20;;;;;;;39.40;15.87;;;;;;;-1.07;100.00;100087.22;5072256;28;20025;-77
2023/01/28 04:15:47;;;;;;;46.78;18.30;;;;;;;-1.15;100.00;100087.69;5072044;28;20360;-78
2023/01/28 04:18:12;;;;;;;41.92;17.48;;;;;;;-1.23;100.00;100082.94;5054032;28;20028;-78
2023/01/28 04:20:39;;;;;;;39.87;17.03;;;;;;;-1.17;100.00;100085.19;5071972;28;20017;-77
2023/01/28 04:23:06;;;;;;;40.53;16.92;;;;;;;-1.04;100.00;100087.00;5071813;28;20104;-78
2023/01/28 04:25:33;;;;;;;39.40;15.55;;;;;;;-1.01;100.00;100086.78;5054055;28;20498;-78
2023/01/28 04:27:58;;;;;;;38.20;16.80;;;;;;;-1.04;100.00;100080.00;5071764;28;20429;-78
2023/01/28 04:30:24;;;;;;;41.83;17.60;;;;;;;-1.18;100.00;100075.63;5071631;28;20285;-78
2023/01/28 04:32:50;;;;;;;43.88;19.00;;;;;;;-1.17;100.00;100086.97;5071726;28;20105;-78
2023/01/28 04:35:16;;;;;;;38.93;17.07;;;;;;;-1.07;100.00;100085.44;5071852;28;20052;-78
2023/01/28 04:37:43;;;;;;;42.97;17.53;;;;;;;-1.10;100.00;100080.38;5075664;28;20535;-77
2023/01/28 04:40:11;;;;;;;38.63;16.00;;;;;;;-1.05;100.00;100091.41;5075387;28;20254;-78
2023/01/28 04:42:38;;;;;;;40.43;18.07;;;;;;;-1.13;100.00;100086.66;5057620;28;20790;-78
2023/01/28 04:45:06;;;;;;;42.08;18.17;;;;;;;-1.01;100.00;100090.25;5075368;28;20261;-78
2023/01/28 04:47:32;;;;;;;41.93;17.57;;;;;;;-1.08;100.00;100089.00;5057422;28;20029;-78
2023/01/28 04:49:57;;;;;;;42.00;17.37;;;;;;;-1.08;100.00;100094.22;5075141;28;20249;-78
2023/01/28 04:52:22;;;;;;;44.60;17.67;;;;;;;-1.16;100.00;100097.38;5075454;28;20090;-78
2023/01/28 04:54:48;;;;;;;43.70;18.47;;;;;;;-1.09;100.00;100103.03;5075504;28;20032;-78
2023/01/28 04:57:15;;;;;;;46.17;19.77;;;;;;;-1.17;100.00;100100.09;5075278;28;20025;-78
2023/01/28 04:59:41;;;;;;;55.70;22.38;;;;;;;-1.21;100.00;100095.97;5079908;28;20050;-78
2023/01/28 05:02:06;;;;;;;46.27;20.20;;;;;;;-1.31;100.00;100095.72;5057159;28;20034;-78
2023/01/28 05:04:31;;;;;;;45.87;19.23;;;;;;;-1.30;100.00;100102.66;5075090;28;20499;-78
2023/01/28 05:06:57;;;;;;;44.83;18.27;;;;;;;-1.29;100.00;100106.09;5074915;28;20036;-78
2023/01/28 05:09:22;;;;;;;46.10;18.63;;;;;;;-1.22;100.00;100094.28;5074977;28;20427;-78
2023/01/28 05:11:48;;;;;;;45.53;18.60;;;;;;;-1.20;100.00;100103.72;5075151;28;20024;-77
2023/01/28 05:14:14;;;;;;;39.43;17.43;;;;;;;-1.22;100.00;100105.59;5057155;28;20025;-78
2023/01/28 05:16:40;;;;;;;40.57;18.00;;;;;;;-1.28;100.00;100106.00;5074937;28;20032;-77
2023/01/28 05:19:05;;;;;;;45.10;19.10;;;;;;;-1.28;100.00;100108.63;5073974;28;20061;-78
2023/01/28 05:21:31;;;;;;;45.30;18.87;;;;;;;-1.19;100.00;100117.69;5073858;28;20105;-77
2023/01/28 05:23:56;;;;;;;47.53;18.27;;;;;;;-1.29;100.00;100114.81;5073658;28;20098;-78
2023/01/28 05:26:22;;;;;;;49.87;19.10;;;;;;;-1.31;100.00;100123.72;5073513;28;20032;-78
2023/01/28 05:28:48;;;;;;;44.03;18.20;;;;;;;-1.39;100.00;100118.13;5073632;28;20083;-78
2023/01/28 05:31:13;;;;;;;48.30;20.50;;;;;;;-1.28;100.00;100136.63;5090425;28;20292;-78
2023/01/28 05:33:39;;;;;;;53.27;21.53;;;;;;;-1.31;100.00;100132.44;5094912;28;20387;-78
2023/01/28 05:36:04;;;;;;;51.93;19.83;;;;;;;-1.31;100.00;100131.59;5094291;28;20028;-78
2023/01/28 05:38:30;;;;;;;51.67;20.50;;;;;;;-1.36;100.00;100133.63;5094333;28;20032;-78
2023/01/28 05:40:55;;;;;;;56.83;21.67;;;;;;;-1.36;100.00;100131.00;5075928;28;20020;-78
2023/01/28 05:43:21;;;;;;;56.50;20.70;;;;;;;-1.27;100.00;100125.22;5076260;28;20032;-78
2023/01/28 05:45:46;;;;;;;48.70;20.37;;;;;;;-1.33;100.00;100129.06;5094266;28;20024;-78
2023/01/28 05:48:13;;;;;;;51.27;20.23;;;;;;;-1.28;100.00;100124.38;5093640;28;20050;-78
2023/01/28 05:50:38;;;;;;;48.60;19.73;;;;;;;-1.33;100.00;100133.44;5094577;28;20093;-78
2023/01/28 05:53:05;;;;;;;47.67;19.87;;;;;;;-1.32;100.00;100138.59;5076316;28;20028;-78
2023/01/28 05:55:31;;;;;;;55.58;22.15;;;;;;;-1.35;100.00;100140.56;5094351;28;20016;-78
2023/01/28 05:57:57;;;;;;;52.77;20.77;;;;;;;-1.38;100.00;100132.88;5094590;28;20035;-78
2023/01/28 06:00:25;;;;;;;54.20;20.67;;;;;;;-1.28;100.00;100140.09;5094319;28;20032;-77
2023/01/28 06:02:51;;;;;;;54.10;20.65;;;;;;;-1.42;100.00;100136.66;5094245;28;20042;-78
2023/01/28 06:05:18;;;;;;;53.53;21.60;;;;;;;-1.38;100.00;100138.13;5094240;28;20024;-78
2023/01/28 06:07:45;;;;;;;58.53;23.38;;;;;;;-1.37;100.00;100131.94;5094247;28;20118;-78
2023/01/28 06:10:10;;;;;;;53.42;20.98;;;;;;;-1.33;100.00;100150.03;5094176;28;20028;-78
2023/01/28 06:12:36;;;;;;;56.10;21.67;;;;;;;-1.28;100.00;100152.38;5094060;28;20039;-77
2023/01/28 06:15:01;;;;;;;55.97;21.00;;;;;;;-1.41;100.00;100139.19;5094046;28;20020;-78
2023/01/28 06:17:27;;;;;;;51.63;20.27;;;;;;;-1.29;100.00;100161.16;5093809;28;20063;-78
2023/01/28 06:19:52;;;;;;;53.53;20.60;;;;;;;-1.29;100.00;100156.78;5093912;28;20114;-78
2023/01/28 06:22:18;;;;;;;52.17;21.80;;;;;;;-1.28;100.00;100155.00;5093821;28;20059;-78
2023/01/28 06:24:43;;;;;;;56.40;22.53;;;;;;;-1.33;100.00;100151.81;5093921;28;20063;-78
2023/01/28 06:27:08;;;;;;;53.53;20.57;;;;;;;-1.23;100.00;100153.75;5075770;28;20554;-78
2023/01/28 06:29:34;;;;;;;52.47;21.10;;;;;;;-1.27;100.00;100165.34;5073616;28;20024;-78
2023/01/28 06:31:59;;;;;;;55.97;22.33;;;;;;;-1.26;100.00;100163.56;5055425;28;20097;-78
2023/01/28 06:34:25;;;;;;;56.63;22.40;;;;;;;-1.23;100.00;100169.47;5073474;28;20032;-78
2023/01/28 06:36:52;;;;;;;56.63;21.27;;;;;;;-1.26;100.00;100167.03;5073414;28;20071;-78
2023/01/28 06:39:20;;;;;;;59.78;21.60;;;;;;;-1.25;100.00;100163.50;5073304;28;20380;-78
2023/01/28 06:41:48;;;;;;;55.38;22.80;;;;;;;-1.28;100.00;100173.34;5073121;28;20086;-78
2023/01/28 06:44:13;;;;;;;55.03;21.30;;;;;;;-1.30;100.00;100173.44;5073198;28;20544;-78
2023/01/28 06:46:40;;;;;;;54.47;22.57;;;;;;;-1.31;100.00;100170.91;5073033;28;20028;-78
2023/01/28 06:49:05;;;;;;;56.47;21.10;;;;;;;-1.26;100.00;100181.94;5055122;28;20074;-78
2023/01/28 06:51:31;;;;;;;62.33;21.40;;;;;;;-1.31;100.00;100178.78;5054810;28;20388;-78
2023/01/28 06:53:56;;;;;;;57.07;23.67;;;;;;;-1.27;100.00;100185.53;5072811;28;20081;-78
2023/01/28 06:56:23;;;;;;;57.37;23.20;;;;;;;-1.32;100.00;100190.19;5072861;28;20412;-77
2023/01/28 06:58:48;;;;;;;67.88;24.58;;;;;;;-1.34;100.00;100184.19;5072999;28;20028;-77
2023/01/28 07:01:16;;;;;;;66.73;23.93;;;;;;;-1.31;100.00;100190.09;5092900;28;20024;-76
2023/01/28 07:03:42;;;;;;;63.35;23.90;;;;;;;-1.24;100.00;100190.56;5092841;28;20048;-76
2023/01/28 07:06:07;;;;;;;60.83;22.83;;;;;;;-1.32;100.00;100188.41;5092895;28;20047;-77
2023/01/28 07:08:33;;;;;;;60.27;23.70;;;;;;;-1.18;100.00;100192.81;5093683;28;20107;-78
2023/01/28 07:10:59;;;;;;;57.00;21.93;;;;;;;-1.16;100.00;100185.69;5093113;28;20024;-78
2023/01/28 07:13:25;;;;;;;61.20;22.37;;;;;;;-1.14;100.00;100197.75;5092973;28;20844;-78
2023/01/28 07:15:54;;;;;;;58.03;21.80;;;;;;;-1.10;100.00;100191.38;5092337;28;20032;-77
2023/01/28 07:18:19;;;;;;;52.45;20.65;;;;;;;-1.00;100.00;100194.25;5092249;28;20038;-77
2023/01/28 07:20:45;;;;;;;57.63;21.70;;;;;;;-1.06;100.00;100191.19;5092305;28;20467;-77
2023/01/28 07:23:11;;;;;;;61.17;22.30;;;;;;;-1.00;100.00;100198.66;5092162;28;20441;-78
2023/01/28 07:25:36;;;;;;;59.67;22.35;;;;;;;-1.10;100.00;100191.38;5092012;28;20024;-76
2023/01/28 07:28:02;;;;;;;62.93;21.83;;;;;;;-1.03;100.00;100198.84;5090055;28;20040;-77
2023/01/28 07:30:27;;;;;;;55.33;22.67;;;;;;;-0.97;100.00;100193.22;5081087;28;20046;-77
2023/01/28 07:32:57;;;;;;;59.17;22.90;;;;;;;-0.95;100.00;100197.44;5091772;28;20042;-76
2023/01/28 07:35:24;;;;;;;61.40;24.47;;;;;;;-1.07;100.00;100189.50;5091896;28;20035;-77
2023/01/28 07:37:54;;;;;;;61.33;23.85;;;;;;;-0.87;100.00;100192.53;5092125;28;20265;-76
2023/01/28 07:40:20;;;;;;;58.17;22.63;;;;;;;-0.91;100.00;100193.66;5092359;28;20098;-76
2023/01/28 07:42:46;;;;;;;64.88;23.75;;;;;;;-0.88;100.00;100192.63;5092207;28;20260;-77
2023/01/28 07:45:11;;;;;;;60.73;23.07;;;;;;;-0.90;100.00;100195.34;5092566;28;20024;-77
2023/01/28 07:47:37;;;;;;;60.77;23.90;;;;;;;-0.80;100.00;100188.56;5092205;28;20020;-76
2023/01/28 07:50:03;;;;;;;55.33;21.77;;;;;;;-0.81;100.00;100191.31;5092032;28;20112;-77
2023/01/28 07:52:28;;;;;;;59.83;22.73;;;;;;;-0.82;100.00;100187.00;5091709;28;20781;-76
2023/01/28 07:54:53;;;;;;;59.87;24.33;;;;;;;-0.77;100.00;100193.63;5073884;28;20060;-77
2023/01/28 07:57:21;;;;;;;54.53;21.77;;;;;;;-0.76;100.00;100192.69;5091946;28;20483;-76
2023/01/28 07:59:49;;;;;;;54.23;22.30;;;;;;;-0.68;100.00;100193.97;5090917;28;20023;-76
2023/01/28 08:02:15;;;;;;;55.90;22.77;;;;;;;-0.67;100.00;100198.28;5071466;28;20265;-76
2023/01/28 08:04:41;;;;;;;55.70;23.47;;;;;;;-0.71;100.00;100200.28;5071450;28;20288;-76
2023/01/28 08:07:06;;;;;;;62.70;24.30;;;;;;;-0.67;100.00;100206.16;5071531;28;20686;-77
2023/01/28 08:09:35;;;;;;;59.67;22.77;;;;;;;-0.69;100.00;100210.69;5071267;28;20032;-76
2023/01/28 08:12:02;;;;;;;60.58;24.08;;;;;;;-0.76;100.00;100208.44;5074148;28;20424;-77
2023/01/28 08:14:28;;;;;;;57.73;22.67;;;;;;;-0.63;100.00;100208.50;5075375;28;20020;-76
2023/01/28 08:16:53;;;;;;;58.07;22.90;;;;;;;-0.63;100.00;100221.59;5075295;28;20763;-77
2023/01/28 08:19:20;;;;;;;60.20;22.77;;;;;;;-0.58;100.00;100224.78;5075101;28;20028;-76
2023/01/28 08:21:50;;;;;;;60.77;25.07;;;;;;;-0.50;100.00;100230.38;5057303;28;20031;-77
2023/01/28 08:24:16;;;;;;;64.13;25.03;;;;;;;-0.62;100.00;100230.31;5075124;28;20296;-76
2023/01/28 08:26:42;;;;;;;62.40;24.50;;;;;;;-0.63;100.00;100223.38;5075020;28;20268;-76
2023/01/28 08:29:08;;;;;;;59.37;23.30;;;;;;;-0.59;100.00;100222.25;5074960;28;20257;-77
2023/01/28 08:31:34;;;;;;;56.67;22.47;;;;;;;-0.55;100.00;100221.94;5093184;28;20507;-77
2023/01/28 08:33:59;;;;;;;57.83;23.37;;;;;;;-0.59;100.00;100223.09;5094478;28;20273;-76
2023/01/28 08:36:25;;;;;;;55.70;21.57;;;;;;;-0.47;100.00;100226.72;5094262;28;20035;-77
2023/01/28 08:38:53;;;;;;;57.10;22.33;;;;;;;-0.57;100.00;100229.06;5094515;28;20044;-77
2023/01/28 08:41:20;;;;;;;55.70;21.87;;;;;;;-0.56;100.00;100229.91;5076345;28;20035;-77
2023/01/28 08:43:46;;;;;;;56.60;22.20;;;;;;;-0.47;100.00;100229.34;5094308;28;20376;-77
2023/01/28 08:46:12;;;;;;;54.90;21.73;;;;;;;-0.45;100.00;100238.78;5094340;28;20681;-76
2023/01/28 08:48:37;;;;;;;51.47;21.93;;;;;;;-0.44;100.00;100240.47;5094315;28;20052;-76
2023/01/28 08:51:03;;;;;;;53.53;22.00;;;;;;;-0.39;100.00;100235.78;5094240;28;20077;-76
2023/01/28 08:53:28;;;;;;;50.63;21.30;;;;;;;-0.42;100.00;100243.84;5094176;28;20073;-77
2023/01/28 08:55:54;;;;;;;60.90;23.13;;;;;;;-0.45;100.00;100241.41;5075979;28;20043;-77
2023/01/28 08:58:20;;;;;;;58.87;22.40;;;;;;;-0.34;100.00;100240.69;5075915;28;20023;-76
2023/01/28 09:00:46;;;;;;;57.93;23.03;;;;;;;-0.39;100.00;100243.66;5093990;28;20502;-76
2023/01/28 09:03:12;;;;;;;57.07;22.03;;;;;;;-0.37;100.00;100247.03;5093731;28;20054;-77
2023/01/28 09:05:38;;;;;;;53.43;22.30;;;;;;;-0.37;100.00;100249.66;5093964;28;20350;-76
2023/01/28 09:08:07;;;;;;;52.23;20.60;;;;;;;-0.26;100.00;100256.81;5093997;28;20758;-77
2023/01/28 09:10:33;;;;;;;55.33;21.83;;;;;;;-0.26;100.00;100251.56;5093864;28;20028;-76
2023/01/28 09:12:58;;;;;;;55.97;22.07;;;;;;;-0.23;100.00;100253.97;5093792;28;20266;-77
2023/01/28 09:15:23;;;;;;;53.73;21.33;;;;;;;-0.21;100.00;100261.75;5093767;28;20024;-77
2023/01/28 09:17:49;;;;;;;54.67;22.63;;;;;;;-0.20;100.00;100261.66;5093753;28;20077;-77
2023/01/28 09:20:15;;;;;;;56.60;22.50;;;;;;;-0.17;100.00;100265.88;5093646;28;20028;-77
2023/01/28 09:22:41;;;;;;;50.63;21.00;;;;;;;-0.12;100.00;100256.75;5092224;28;20028;-76
2023/01/28 09:25:07;;;;;;;57.53;22.97;;;;;;;-0.06;100.00;100266.84;5093557;28;20024;-76
2023/01/28 09:27:32;;;;;;;53.40;22.23;;;;;;;-0.07;100.00;100265.16;5093528;28;20028;-76
2023/01/28 09:29:58;;;;;;;53.30;22.87;;;;;;;-0.01;100.00;100258.69;5088084;28;20107;-76
2023/01/28 09:32:23;;;;;;;54.30;21.63;;;;;;;-0.01;100.00;100264.78;5073110;28;20068;-76
2023/01/28 09:34:50;;;;;;;52.43;21.77;;;;;;;0.09;100.00;100266.78;5073113;28;20033;-76
2023/01/28 09:37:17;;;;;;;52.23;22.03;;;;;;;0.19;100.00;100278.38;5073046;28;20119;-76
2023/01/28 09:39:43;;;;;;;50.70;21.87;;;;;;;0.16;100.00;100273.31;5073673;28;20323;-76
2023/01/28 09:42:50;;;;;;;51.87;22.70;;;;;;;0.17;100.00;100277.63;5073588;28;20928;-76
2023/01/28 09:45:16;;;;;;;54.43;22.47;;;;;;;0.03;100.00;100275.06;5073636;28;20066;-77
2023/01/28 09:47:51;;;;;;;52.70;22.53;;;;;;;0.06;100.00;100274.88;5073655;28;20323;-76
2023/01/28 09:50:40;;;;;;;53.07;22.47;;;;;;;0.13;100.00;100270.88;5055316;28;20037;-76
2023/01/28 09:53:24;;;;;;;54.47;22.60;;;;;;;0.15;100.00;100282.13;5073779;28;20308;-77
2023/01/28 09:55:55;;;;;;;51.13;20.97;;;;;;;0.15;100.00;100275.09;5073519;28;20261;-76
2023/01/28 09:58:20;;;;;;;57.47;23.33;;;;;;;0.15;100.00;100266.34;5073380;28;20732;-76
2023/01/28 10:00:57;;;;;;;54.67;23.70;;;;;;;0.03;100.00;100270.66;5073777;28;20253;-76
2023/01/28 10:03:38;;;;;;;57.97;24.33;;;;;;;0.09;100.00;100272.88;5073245;28;20064;-76
2023/01/28 10:06:35;;;;;;;57.33;23.77;;;;;;;0.20;100.00;100272.16;5073526;28;20272;-77
2023/01/28 10:09:07;;;;;;;59.50;24.63;;;;;;;0.22;100.00;100267.66;5073371;28;20257;-76
2023/01/28 10:12:01;;;;;;;56.63;23.67;;;;;;;0.21;100.00;100248.41;5073135;28;20323;-76
2023/01/28 10:14:45;;;;;;;56.13;23.97;;;;;;;0.25;100.00;100265.63;4984466;28;20264;-76
2023/01/28 10:17:13;;;;;;;58.70;24.08;;;;;;;0.31;100.00;100264.38;5073305;28;20628;-76
2023/01/28 10:19:46;;;;;;;55.67;24.10;;;;;;;0.28;100.00;100254.91;5073470;28;20024;-76
2023/01/28 10:22:17;;;;;;;57.60;24.73;;;;;;;0.20;100.00;100251.13;5073297;28;20257;-77
2023/01/28 10:24:50;;;;;;;62.93;26.10;;;;;;;0.21;100.00;100255.44;5073437;28;20040;-77
2023/01/28 10:27:22;;;;;;;58.72;24.08;;;;;;;0.22;100.00;100259.75;5073808;28;20284;-77
2023/01/28 10:29:49;;;;;;;59.30;25.47;;;;;;;0.17;100.00;100259.22;5073531;28;20024;-77
2023/01/28 10:32:30;;;;;;;53.97;22.83;;;;;;;0.24;100.00;100260.47;5073253;28;20284;-77
2023/01/28 10:34:58;;;;;;;57.17;23.97;;;;;;;0.25;100.00;100260.38;5072982;28;20616;-77
2023/01/28 10:37:25;;;;;;;57.30;22.93;;;;;;;0.40;100.00;100258.50;5073027;28;20257;-77
2023/01/28 10:39:55;;;;;;;53.67;22.83;;;;;;;0.36;100.00;100255.22;5073199;28;20261;-77
2023/01/28 10:42:37;;;;;;;49.80;21.33;;;;;;;0.54;100.00;100260.19;5072998;28;20743;-77
2023/01/28 10:45:25;;;;;;;52.70;21.87;;;;;;;0.70;100.00;100258.16;5073178;28;20337;-77
2023/01/28 10:48:16;;;;;;;50.77;22.23;;;;;;;0.54;100.00;100258.41;5072297;28;20348;-77
2023/01/28 10:51:00;;;;;;;49.83;21.43;;;;;;;0.61;100.00;100248.28;5071826;28;20284;-76
2023/01/28 10:53:41;;;;;;;54.40;22.50;;;;;;;0.73;100.00;100250.06;5072079;28;20257;-77
2023/01/28 10:56:09;;;;;;;50.10;21.10;;;;;;;0.61;100.00;100257.03;5072175;28;20253;-76
2023/01/28 10:58:49;;;;;;;51.87;20.93;;;;;;;0.63;100.00;100249.03;5072597;28;20327;-77
2023/01/28 11:01:15;;;;;;;42.17;19.53;;;;;;;0.65;100.00;100252.41;5054234;28;20284;-76
2023/01/28 11:03:57;;;;;;;45.40;20.00;;;;;;;0.55;100.00;100257.47;5071989;28;20355;-77
2023/01/28 11:06:27;;;;;;;37.20;16.07;;;;;;;0.54;100.00;100244.41;5072180;28;20032;-77
2023/01/28 11:08:53;;;;;;;35.17;14.73;;;;;;;0.46;100.00;100260.72;5072206;28;20269;-76
2023/01/28 11:11:25;;;;;;;38.37;15.93;;;;;;;0.34;100.00;100256.31;5071995;28;20760;-76
2023/01/28 11:13:53;;;;;;;36.10;15.10;;;;;;;0.34;100.00;100251.03;5071859;28;20056;-75
2023/01/28 11:16:20;;;;;;;39.23;17.50;;;;;;;0.31;100.00;100241.56;5053983;28;20296;-80
2023/01/28 11:19:06;;;;;;;39.13;17.43;;;;;;;0.50;100.00;100256.91;5073313;28;20257;-83
2023/01/28 11:21:34;;;;;;;36.37;16.57;;;;;;;0.50;100.00;100254.28;5072904;28;20278;-77
2023/01/28 11:24:06;;;;;;;41.57;17.53;;;;;;;0.60;100.00;100251.88;5073292;28;20300;-75
2023/01/28 11:26:33;;;;;;;42.60;18.47;;;;;;;0.57;100.00;100252.09;5072716;28;20264;-78
2023/01/28 11:29:00;;;;;;;38.43;17.17;;;;;;;0.55;100.00;100252.19;5073718;28;20265;-76
2023/01/28 11:31:27;;;;;;;37.57;16.40;;;;;;;0.52;100.00;100254.19;5090589;28;20285;-78
2023/01/28 11:34:00;;;;;;;34.37;14.97;;;;;;;0.50;100.00;100253.44;5093008;28;20799;-75
2023/01/28 11:36:28;;;;;;;34.13;15.27;;;;;;;0.49;100.00;100255.25;5093150;28;20259;-75
2023/01/28 11:38:55;;;;;;;37.77;15.97;;;;;;;0.48;100.00;100255.34;5093105;28;20268;-75
2023/01/28 11:41:39;;;;;;;36.63;15.63;;;;;;;0.52;100.00;100262.09;5092948;28;20615;-76
2023/01/28 11:44:13;;;;;;;;;;;;;;;0.49;100.00;100262.28;5081603;28;20261;-76
2023/01/28 11:47:03;;;;;;;35.70;16.55;;;;;;;0.44;100.00;100262.63;5067607;28;19915;-76
2023/01/28 11:49:46;;;;;;;39.30;16.73;;;;;;;0.41;100.00;100254.94;5072985;28;20025;-75